sensor_id;sensor_type;location;lat;lon;timestamp;pressure;altitude;pressure_sealevel;temperature;humidity
19112;BME280;9688;51.906;8.376;2023-02-17T00:02:29;101099.59;;;10.30;100.00
19112;BME280;9688;51.906;8.376;2023-02-17T00:05:16;101096.97;;;10.30;100.00
19112;BME280;9688;51.906;8.376;2023-02-17T00:08:01;101096.00;;;10.33;100.00
19112;BME280;9688;51.906;8.376;2023-02-17T00:10:55;101093.34;;;10.34;100.00
19112;BME280;9688;51.906;8.376;2023-02-17T00:13:43;101071.25;;;10.37;100.00
19112;BME280;9688;51.906;8.376;2023-02-17T00:16:29;101078.25;;;10.38;100.00
19112;BME280;9688;51.906;8.376;2023-02-17T00:19:14;101065.91;;;10.38;100.00
19112;BME280;9688;51.906;8.376;2023-02-17T00:22:09;101067.56;;;10.41;100.00
19112;BME280;9688;51.906;8.376;2023-02-17T00:24:55;101063.97;;;10.43;99.98
19112;BME280;9688;51.906;8.376;2023-02-17T00:27:40;101056.81;;;10.47;100.00
19112;BME280;9688;51.906;8.376;2023-02-17T00:30:28;101060.28;;;10.49;100.00
19112;BME280;9688;51.906;8.376;2023-02-17T00:33:14;101061.09;;;10.51;100.00
19112;BME280;9688;51.906;8.376;2023-02-17T00:36:02;101054.84;;;10.54;100.00
19112;BME280;9688;51.906;8.376;2023-02-17T00:38:49;101045.03;;;10.57;100.00
19112;BME280;9688;51.906;8.376;2023-02-17T00:41:35;101051.09;;;10.61;100.00
19112;BME280;9688;51.906;8.376;2023-02-17T00:44:22;101051.16;;;10.59;100.00
19112;BME280;9688;51.906;8.376;2023-02-17T00:47:09;101050.22;;;10.60;100.00
19112;BME280;9688;51.906;8.376;2023-02-17T00:49:55;101053.72;;;10.61;100.00
19112;BME280;9688;51.906;8.376;2023-02-17T00:52:41;101052.88;;;10.60;100.00
19112;BME280;9688;51.906;8.376;2023-02-17T00:55:27;101049.38;;;10.60;100.00
19112;BME280;9688;51.906;8.376;2023-02-17T00:58:12;101047.59;;;10.60;100.00
19112;BME280;9688;51.906;8.376;2023-02-17T01:00:58;101043.13;;;10.62;100.00
19112;BME280;9688;51.906;8.376;2023-02-17T01:03:46;101041.34;;;10.63;100.00
19112;BME280;9688;51.906;8.376;2023-02-17T01:06:34;101045.78;;;10.62;100.00
19112;BME280;9688;51.906;8.376;2023-02-17T01:09:20;101042.28;;;10.62;100.00
19112;BME280;9688;51.906;8.376;2023-02-17T01:12:05;101039.56;;;10.63;100.00
19112;BME280;9688;51.906;8.376;2023-02-17T01:14:51;101027.19;;;10.64;100.00
19112;BME280;9688;51.906;8.376;2023-02-17T01:17:37;101036.91;;;10.63;100.00
19112;BME280;9688;51.906;8.376;2023-02-17T01:20:24;101038.69;;;10.63;100.00
19112;BME280;9688;51.906;8.376;2023-02-17T01:23:11;101035.13;;;10.64;100.00
19112;BME280;9688;51.906;8.376;2023-02-17T01:25:57;101016.63;;;10.64;100.00
19112;BME280;9688;51.906;8.376;2023-02-17T01:28:43;101020.09;;;10.66;100.00
19112;BME280;9688;51.906;8.376;2023-02-17T01:31:29;101015.72;;;10.65;100.00
19112;BME280;9688;51.906;8.376;2023-02-17T01:34:15;101016.56;;;10.67;100.00
19112;BME280;9688;51.906;8.376;2023-02-17T01:37:02;101012.22;;;10.64;100.00
19112;BME280;9688;51.906;8.376;2023-02-17T01:39:48;101009.59;;;10.64;100.00
19112;BME280;9688;51.906;8.376;2023-02-17T01:42:34;101004.28;;;10.64;100.00
19112;BME280;9688;51.906;8.376;2023-02-17T01:45:40;100993.66;;;10.66;100.00
19112;BME280;9688;51.906;8.376;2023-02-17T01:48:35;100997.13;;;10.68;100.00
19112;BME280;9688;51.906;8.376;2023-02-17T01:51:25;100994.50;;;10.66;100.00
19112;BME280;9688;51.906;8.376;2023-02-17T01:54:15;100990.03;;;10.68;100.00
19112;BME280;9688;51.906;8.376;2023-02-17T01:57:03;100983.91;;;10.68;100.00
19112;BME280;9688;51.906;8.376;2023-02-17T01:59:50;100984.72;;;10.70;100.00
19112;BME280;9688;51.906;8.376;2023-02-17T02:02:36;100986.44;;;10.71;100.00
19112;BME280;9688;51.906;8.376;2023-02-17T02:05:22;100983.81;;;10.69;100.00
19112;BME280;9688;51.906;8.376;2023-02-17T02:08:09;100969.75;;;10.69;100.00
19112;BME280;9688;51.906;8.376;2023-02-17T02:10:57;100974.19;;;10.68;100.00
19112;BME280;9688;51.906;8.376;2023-02-17T02:13:43;100974.25;;;10.67;100.00
19112;BME280;9688;51.906;8.376;2023-02-17T02:16:34;100961.03;;;10.67;100.00
19112;BME280;9688;51.906;8.376;2023-02-17T02:19:44;100962.00;;;10.64;100.00
19112;BME280;9688;51.906;8.376;2023-02-17T02:22:57;100946.16;;;10.63;100.00
19112;BME280;9688;51.906;8.376;2023-02-17T02:29:23;100927.69;;;10.61;100.00
19112;BME280;9688;51.906;8.376;2023-02-17T02:32:42;100932.19;;;10.59;100.00
19112;BME280;9688;51.906;8.376;2023-02-17T02:35:33;100937.41;;;10.61;100.00
19112;BME280;9688;51.906;8.376;2023-02-17T02:38:25;100936.56;;;10.60;100.00
19112;BME280;9688;51.906;8.376;2023-02-17T02:41:16;100931.22;;;10.62;100.00
19112;BME280;9688;51.906;8.376;2023-02-17T02:44:07;100931.13;;;10.65;100.00
19112;BME280;9688;51.906;8.376;2023-02-17T02:46:57;100926.72;;;10.64;100.00
19112;BME280;9688;51.906;8.376;2023-02-17T02:49:44;100939.06;;;10.65;100.00
19112;BME280;9688;51.906;8.376;2023-02-17T02:52:36;100944.22;;;10.68;100.00
19112;BME280;9688;51.906;8.376;2023-02-17T02:55:36;100937.16;;;10.68;100.00
19112;BME280;9688;51.906;8.376;2023-02-17T02:58:32;100935.34;;;10.70;100.00
19112;BME280;9688;51.906;8.376;2023-02-17T03:01:28;100941.53;;;10.69;100.00
19112;BME280;9688;51.906;8.376;2023-02-17T03:04:28;100930.94;;;10.69;100.00
19112;BME280;9688;51.906;8.376;2023-02-17T03:07:23;100931.84;;;10.70;100.00
19112;BME280;9688;51.906;8.376;2023-02-17T03:10:15;100932.63;;;10.72;100.00
19112;BME280;9688;51.906;8.376;2023-02-17T03:13:05;100929.13;;;10.71;100.00
19112;BME280;9688;51.906;8.376;2023-02-17T03:15:50;100937.03;;;10.73;100.00
19112;BME280;9688;51.906;8.376;2023-02-17T03:18:37;100932.63;;;10.72;100.00
19112;BME280;9688;51.906;8.376;2023-02-17T03:21:25;100919.38;;;10.74;100.00
19112;BME280;9688;51.906;8.376;2023-02-17T03:24:15;100916.66;;;10.75;100.00
19112;BME280;9688;51.906;8.376;2023-02-17T03:27:01;100910.47;;;10.76;100.00
19112;BME280;9688;51.906;8.376;2023-02-17T03:29:47;100908.78;;;10.74;100.00
19112;BME280;9688;51.906;8.376;2023-02-17T03:32:33;100901.78;;;10.73;100.00
19112;BME280;9688;51.906;8.376;2023-02-17T03:35:19;100901.78;;;10.73;100.00
19112;BME280;9688;51.906;8.376;2023-02-17T03:38:04;100901.81;;;10.71;100.00
19112;BME280;9688;51.906;8.376;2023-02-17T03:40:52;100888.59;;;10.71;100.00
19112;BME280;9688;51.906;8.376;2023-02-17T03:43:37;100897.38;;;10.71;100.00
19112;BME280;9688;51.906;8.376;2023-02-17T03:46:23;100893.94;;;10.69;100.00
19112;BME280;9688;51.906;8.376;2023-02-17T03:49:09;100903.59;;;10.70;100.00
19112;BME280;9688;51.906;8.376;2023-02-17T03:51:54;100890.31;;;10.72;100.00
19112;BME280;9688;51.906;8.376;2023-02-17T03:54:41;100883.31;;;10.71;100.00
19112;BME280;9688;51.906;8.376;2023-02-17T03:57:29;100881.59;;;10.70;100.00
19112;BME280;9688;51.906;8.376;2023-02-17T04:00:16;100886.81;;;10.71;100.00
19112;BME280;9688;51.906;8.376;2023-02-17T04:03:02;100884.13;;;10.73;100.00
19112;BME280;9688;51.906;8.376;2023-02-17T04:05:48;100884.03;;;10.76;100.00
19112;BME280;9688;51.906;8.376;2023-02-17T04:08:34;100882.94;;;10.82;100.00
19112;BME280;9688;51.906;8.376;2023-02-17T04:11:19;100882.94;;;10.82;100.00
19112;BME280;9688;51.906;8.376;2023-02-17T04:14:07;100872.28;;;10.83;100.00
19112;BME280;9688;51.906;8.376;2023-02-17T04:16:52;100863.47;;;10.84;100.00
19112;BME280;9688;51.906;8.376;2023-02-17T04:19:38;100864.28;;;10.86;100.00
19112;BME280;9688;51.906;8.376;2023-02-17T04:22:25;100873.94;;;10.87;100.00
19112;BME280;9688;51.906;8.376;2023-02-17T04:25:11;100888.81;;;10.90;100.00
19112;BME280;9688;51.906;8.376;2023-02-17T04:27:57;100885.22;;;10.92;100.00
19112;BME280;9688;51.906;8.376;2023-02-17T04:30:45;100879.91;;;10.92;100.00
19112;BME280;9688;51.906;8.376;2023-02-17T04:33:31;100876.31;;;10.95;100.00
19112;BME280;9688;51.906;8.376;2023-02-17T04:36:16;100885.84;;;10.99;100.00
19112;BME280;9688;51.906;8.376;2023-02-17T04:39:02;100883.09;;;11.02;100.00
19112;BME280;9688;51.906;8.376;2023-02-17T04:41:48;100886.50;;;11.06;100.00
19112;BME280;9688;51.906;8.376;2023-02-17T04:44:34;100889.03;;;11.09;100.00
19112;BME280;9688;51.906;8.376;2023-02-17T04:47:21;100885.34;;;11.13;100.00
19112;BME280;9688;51.906;8.376;2023-02-17T04:50:09;100885.31;;;11.14;100.00
19112;BME280;9688;51.906;8.376;2023-02-17T04:52:54;100882.53;;;11.18;100.00
19112;BME280;9688;51.906;8.376;2023-02-17T04:55:40;100876.28;;;11.20;100.00
19112;BME280;9688;51.906;8.376;2023-02-17T04:58:26;100871.88;;;11.19;100.00
19112;BME280;9688;51.906;8.376;2023-02-17T05:01:12;100871.84;;;11.21;100.00
19112;BME280;9688;51.906;8.376;2023-02-17T05:03:59;100867.41;;;11.21;100.00
19112;BME280;9688;51.906;8.376;2023-02-17T05:06:45;100869.13;;;11.22;100.00
19112;BME280;9688;51.906;8.376;2023-02-17T05:09:31;100855.84;;;11.24;100.00
19112;BME280;9688;51.906;8.376;2023-02-17T05:12:16;100848.84;;;11.23;100.00
19112;BME280;9688;51.906;8.376;2023-02-17T05:15:03;100850.59;;;11.22;100.00
19112;BME280;9688;51.906;8.376;2023-02-17T05:17:49;100844.31;;;11.25;100.00
19112;BME280;9688;51.906;8.376;2023-02-17T05:20:36;100834.63;;;11.25;100.00
19112;BME280;9688;51.906;8.376;2023-02-17T05:23:22;100842.56;;;11.25;100.00
19112;BME280;9688;51.906;8.376;2023-02-17T05:26:08;100849.56;;;11.26;100.00
19112;BME280;9688;51.906;8.376;2023-02-17T05:28:54;100836.22;;;11.29;100.00
19112;BME280;9688;51.906;8.376;2023-02-17T05:31:40;100832.56;;;11.33;100.00
19112;BME280;9688;51.906;8.376;2023-02-17T05:34:26;100838.63;;;11.35;100.00
19112;BME280;9688;51.906;8.376;2023-02-17T05:37:13;100846.44;;;11.38;100.00
19112;BME280;9688;51.906;8.376;2023-02-17T05:39:59;100851.69;;;11.40;100.00
19112;BME280;9688;51.906;8.376;2023-02-17T05:42:49;100849.78;;;11.44;100.00
19112;BME280;9688;51.906;8.376;2023-02-17T05:45:35;100848.88;;;11.45;100.00
19112;BME280;9688;51.906;8.376;2023-02-17T05:48:21;100857.56;;;11.48;100.00
19112;BME280;9688;51.906;8.376;2023-02-17T05:51:07;100848.69;;;11.49;100.00
19112;BME280;9688;51.906;8.376;2023-02-17T05:53:55;100827.50;;;11.49;100.00
19112;BME280;9688;51.906;8.376;2023-02-17T05:56:40;100812.59;;;11.47;100.00
19112;BME280;9688;51.906;8.376;2023-02-17T05:59:26;100819.78;;;11.45;100.00
19112;BME280;9688;51.906;8.376;2023-02-17T06:02:12;100824.13;;;11.46;100.00
19112;BME280;9688;51.906;8.376;2023-02-17T06:04:57;100813.41;;;11.49;100.00
19112;BME280;9688;51.906;8.376;2023-02-17T06:07:43;100805.53;;;11.47;100.00
19112;BME280;9688;51.906;8.376;2023-02-17T06:10:30;100821.41;;;11.47;100.00
19112;BME280;9688;51.906;8.376;2023-02-17T06:13:16;100814.28;;;11.49;100.00
19112;BME280;9688;51.906;8.376;2023-02-17T06:16:02;100822.09;;;11.52;100.00
19112;BME280;9688;51.906;8.376;2023-02-17T06:18:48;100813.16;;;11.55;99.90
19112;BME280;9688;51.906;8.376;2023-02-17T06:21:35;100810.47;;;11.56;100.00
19112;BME280;9688;51.906;8.376;2023-02-17T06:24:20;100807.69;;;11.59;99.99
19112;BME280;9688;51.906;8.376;2023-02-17T06:27:07;100806.72;;;11.62;99.53
19112;BME280;9688;51.906;8.376;2023-02-17T06:29:53;100804.00;;;11.64;99.04
19112;BME280;9688;51.906;8.376;2023-02-17T06:32:40;100800.44;;;11.65;99.03
19112;BME280;9688;51.906;8.376;2023-02-17T06:35:25;100796.84;;;11.66;98.73
19112;BME280;9688;51.906;8.376;2023-02-17T06:38:12;100798.66;;;11.65;98.16
19112;BME280;9688;51.906;8.376;2023-02-17T06:40:58;100813.47;;;11.69;98.78
19112;BME280;9688;51.906;8.376;2023-02-17T06:43:45;100800.16;;;11.72;98.32
19112;BME280;9688;51.906;8.376;2023-02-17T06:46:33;100814.25;;;11.73;98.21
19112;BME280;9688;51.906;8.376;2023-02-17T06:49:21;100823.97;;;11.72;97.48
19112;BME280;9688;51.906;8.376;2023-02-17T06:52:08;100820.41;;;11.73;97.64
19112;BME280;9688;51.906;8.376;2023-02-17T06:54:54;100819.34;;;11.77;97.45
19112;BME280;9688;51.906;8.376;2023-02-17T06:57:40;100820.13;;;11.79;96.86
19112;BME280;9688;51.906;8.376;2023-02-17T07:00:27;100812.06;;;11.82;97.08
19112;BME280;9688;51.906;8.376;2023-02-17T07:03:14;100823.47;;;11.84;96.51
19112;BME280;9688;51.906;8.376;2023-02-17T07:06:00;100826.09;;;11.86;96.85
19112;BME280;9688;51.906;8.376;2023-02-17T07:08:45;100817.31;;;11.84;96.94
19112;BME280;9688;51.906;8.376;2023-02-17T07:11:31;100807.56;;;11.86;96.40
19112;BME280;9688;51.906;8.376;2023-02-17T07:14:17;100819.78;;;11.89;96.27
19112;BME280;9688;51.906;8.376;2023-02-17T07:17:04;100810.94;;;11.90;96.41
19112;BME280;9688;51.906;8.376;2023-02-17T07:19:50;100811.75;;;11.92;96.56
19112;BME280;9688;51.906;8.376;2023-02-17T07:22:35;100811.75;;;11.92;96.58
19112;BME280;9688;51.906;8.376;2023-02-17T07:25:22;100812.53;;;11.94;96.10
19112;BME280;9688;51.906;8.376;2023-02-17T07:28:08;100822.25;;;11.93;96.45
19112;BME280;9688;51.906;8.376;2023-02-17T07:30:54;100809.88;;;11.94;96.54
19112;BME280;9688;51.906;8.376;2023-02-17T07:33:42;100796.56;;;11.95;95.69
19112;BME280;9688;51.906;8.376;2023-02-17T07:36:29;100804.66;;;11.92;96.57
19112;BME280;9688;51.906;8.376;2023-02-17T07:39:15;100801.19;;;11.90;96.39
19112;BME280;9688;51.906;8.376;2023-02-17T07:42:01;100788.81;;;11.91;96.44
19112;BME280;9688;51.906;8.376;2023-02-17T07:44:48;100789.63;;;11.93;97.02
19112;BME280;9688;51.906;8.376;2023-02-17T07:47:34;100790.56;;;11.92;96.87
19112;BME280;9688;51.906;8.376;2023-02-17T07:50:22;100800.25;;;11.91;96.94
19112;BME280;9688;51.906;8.376;2023-02-17T07:53:08;100799.34;;;11.92;96.92
19112;BME280;9688;51.906;8.376;2023-02-17T07:55:54;100808.09;;;11.94;97.44
19112;BME280;9688;51.906;8.376;2023-02-17T07:58:42;100808.16;;;11.93;97.44
19112;BME280;9688;51.906;8.376;2023-02-17T08:01:29;100797.56;;;11.93;97.38
19112;BME280;9688;51.906;8.376;2023-02-17T08:04:17;100793.13;;;11.93;97.28
19112;BME280;9688;51.906;8.376;2023-02-17T08:07:06;100790.47;;;11.93;97.81
19112;BME280;9688;51.906;8.376;2023-02-17T08:09:52;100795.84;;;11.92;98.42
19112;BME280;9688;51.906;8.376;2023-02-17T08:12:56;100791.41;;;11.92;97.68
19112;BME280;9688;51.906;8.376;2023-02-17T08:16:00;100802.19;;;11.88;98.28
19112;BME280;9688;51.906;8.376;2023-02-17T08:18:46;100786.38;;;11.86;98.45
19112;BME280;9688;51.906;8.376;2023-02-17T08:21:33;100785.47;;;11.86;99.07
19112;BME280;9688;51.906;8.376;2023-02-17T08:24:21;100788.94;;;11.88;98.53
19112;BME280;9688;51.906;8.376;2023-02-17T08:27:07;100778.22;;;11.91;99.17
19112;BME280;9688;51.906;8.376;2023-02-17T08:29:54;100766.88;;;11.87;98.62
19112;BME280;9688;51.906;8.376;2023-02-17T08:32:39;100754.59;;;11.86;99.37
19112;BME280;9688;51.906;8.376;2023-02-17T08:35:25;100745.69;;;11.87;99.09
19112;BME280;9688;51.906;8.376;2023-02-17T08:38:13;100756.34;;;11.86;99.69
19112;BME280;9688;51.906;8.376;2023-02-17T08:41:11;100747.41;;;11.88;99.77
19112;BME280;9688;51.906;8.376;2023-02-17T08:44:00;100761.59;;;11.87;99.92
19112;BME280;9688;51.906;8.376;2023-02-17T08:46:48;100760.59;;;11.90;99.62
19112;BME280;9688;51.906;8.376;2023-02-17T08:49:35;100752.56;;;11.91;100.00
19112;BME280;9688;51.906;8.376;2023-02-17T08:52:22;100747.16;;;11.94;99.77
19112;BME280;9688;51.906;8.376;2023-02-17T08:55:09;100750.59;;;11.96;100.00
19112;BME280;9688;51.906;8.376;2023-02-17T08:57:58;100744.31;;;11.99;99.71
19112;BME280;9688;51.906;8.376;2023-02-17T09:00:51;100762.59;;;12.05;100.00
19112;BME280;9688;51.906;8.376;2023-02-17T09:03:38;100766.13;;;12.05;100.00
19112;BME280;9688;51.906;8.376;2023-02-17T09:06:31;100754.50;;;12.08;100.00
19112;BME280;9688;51.906;8.376;2023-02-17T09:09:19;100762.47;;;12.08;99.53
19112;BME280;9688;51.906;8.376;2023-02-17T09:12:06;100771.22;;;12.10;100.00
19112;BME280;9688;51.906;8.376;2023-02-17T09:14:54;100772.97;;;12.11;100.00
19112;BME280;9688;51.906;8.376;2023-02-17T09:17:39;100772.75;;;12.16;100.00
19112;BME280;9688;51.906;8.376;2023-02-17T09:20:26;100766.44;;;12.18;100.00
19112;BME280;9688;51.906;8.376;2023-02-17T09:23:12;100771.75;;;12.18;100.00
19112;BME280;9688;51.906;8.376;2023-02-17T09:26:03;100773.50;;;12.19;100.00
19112;BME280;9688;51.906;8.376;2023-02-17T09:28:53;100770.84;;;12.19;99.72
19112;BME280;9688;51.906;8.376;2023-02-17T09:31:42;100791.03;;;12.22;100.00
19112;BME280;9688;51.906;8.376;2023-02-17T09:34:29;100790.03;;;12.24;100.00
19112;BME280;9688;51.906;8.376;2023-02-17T09:37:15;100796.09;;;12.28;100.00
19112;BME280;9688;51.906;8.376;2023-02-17T09:40:06;100796.09;;;12.28;99.75
19112;BME280;9688;51.906;8.376;2023-02-17T09:42:53;100800.41;;;12.31;99.96
19112;BME280;9688;51.906;8.376;2023-02-17T09:45:43;100812.63;;;12.33;100.00
19112;BME280;9688;51.906;8.376;2023-02-17T09:48:35;100807.22;;;12.36;100.00
19112;BME280;9688;51.906;8.376;2023-02-17T09:51:25;100810.66;;;12.38;99.56
19112;BME280;9688;51.906;8.376;2023-02-17T09:54:16;100801.72;;;12.41;99.88
19112;BME280;9688;51.906;8.376;2023-02-17T09:57:07;100820.13;;;12.44;99.43
19112;BME280;9688;51.906;8.376;2023-02-17T10:00:02;100805.84;;;12.48;99.65
19112;BME280;9688;51.906;8.376;2023-02-17T10:03:01;100825.25;;;12.48;99.40
19112;BME280;9688;51.906;8.376;2023-02-17T10:06:02;100822.66;;;12.47;99.25
19112;BME280;9688;51.906;8.376;2023-02-17T10:08:57;100833.94;;;12.52;99.16
19112;BME280;9688;51.906;8.376;2023-02-17T10:11:52;100824.84;;;12.58;99.29
19112;BME280;9688;51.906;8.376;2023-02-17T10:14:43;100826.38;;;12.63;99.17
19112;BME280;9688;51.906;8.376;2023-02-17T10:17:36;100810.25;;;12.68;98.76
19112;BME280;9688;51.906;8.376;2023-02-17T10:20:30;100808.28;;;12.73;98.52
19112;BME280;9688;51.906;8.376;2023-02-17T10:23:23;100804.47;;;12.79;98.31
19112;BME280;9688;51.906;8.376;2023-02-17T10:26:18;100794.53;;;12.84;97.76
19112;BME280;9688;51.906;8.376;2023-02-17T10:29:29;100783.63;;;12.90;97.59
19112;BME280;9688;51.906;8.376;2023-02-17T10:32:21;100786.84;;;12.97;97.37
19112;BME280;9688;51.906;8.376;2023-02-17T10:35:14;100781.19;;;13.04;96.90
19112;BME280;9688;51.906;8.376;2023-02-17T10:38:13;100779.16;;;13.11;96.21
19112;BME280;9688;51.906;8.376;2023-02-17T10:41:04;100788.66;;;13.15;96.16
19112;BME280;9688;51.906;8.376;2023-02-17T10:43:55;100781.41;;;13.18;95.81
19112;BME280;9688;51.906;8.376;2023-02-17T10:46:42;100754.88;;;13.18;95.42
19112;BME280;9688;51.906;8.376;2023-02-17T10:49:30;100750.44;;;13.19;95.10
19112;BME280;9688;51.906;8.376;2023-02-17T10:52:18;100769.88;;;13.20;95.15
19112;BME280;9688;51.906;8.376;2023-02-17T10:55:08;100751.06;;;13.24;94.92
19112;BME280;9688;51.906;8.376;2023-02-17T10:58:03;100749.25;;;13.26;94.57
19112;BME280;9688;51.906;8.376;2023-02-17T11:00:52;100747.28;;;13.30;93.96
19112;BME280;9688;51.906;8.376;2023-02-17T11:03:40;100732.94;;;13.34;93.64
19112;BME280;9688;51.906;8.376;2023-02-17T11:06:30;100726.28;;;13.44;93.44
19112;BME280;9688;51.906;8.376;2023-02-17T11:09:22;100712.69;;;13.50;92.78
19112;BME280;9688;51.906;8.376;2023-02-17T11:12:16;100711.59;;;13.54;92.30
19112;BME280;9688;51.906;8.376;2023-02-17T11:15:16;100695.13;;;13.65;92.23
19112;BME280;9688;51.906;8.376;2023-02-17T11:18:10;100694.75;;;13.73;91.25
19112;BME280;9688;51.906;8.376;2023-02-17T11:21:01;100733.28;;;13.81;91.18
19112;BME280;9688;51.906;8.376;2023-02-17T11:23:50;100730.94;;;13.93;90.47
19112;BME280;9688;51.906;8.376;2023-02-17T11:26:37;100720.69;;;14.02;89.86
19112;BME280;9688;51.906;8.376;2023-02-17T11:29:24;100726.38;;;14.12;89.80
19112;BME280;9688;51.906;8.376;2023-02-17T11:32:14;100729.34;;;14.23;89.42
19112;BME280;9688;51.906;8.376;2023-02-17T11:35:01;100705.56;;;14.38;88.38
19112;BME280;9688;51.906;8.376;2023-02-17T11:37:52;100726.66;;;14.41;88.22
19112;BME280;9688;51.906;8.376;2023-02-17T11:40:53;100710.47;;;14.45;87.92
19112;BME280;9688;51.906;8.376;2023-02-17T11:43:51;100718.44;;;14.45;87.42
19112;BME280;9688;51.906;8.376;2023-02-17T11:46:44;100725.34;;;14.49;87.16
19112;BME280;9688;51.906;8.376;2023-02-17T11:49:56;100713.69;;;14.52;86.89
19112;BME280;9688;51.906;8.376;2023-02-17T11:52:59;100710.00;;;14.55;87.12
19112;BME280;9688;51.906;8.376;2023-02-17T11:55:56;100692.16;;;14.57;86.71
19112;BME280;9688;51.906;8.376;2023-02-17T11:59:12;100696.09;;;14.49;86.73
19112;BME280;9688;51.906;8.376;2023-02-17T12:02:16;100677.31;;;14.53;86.25
19112;BME280;9688;51.906;8.376;2023-02-17T12:05:18;100664.63;;;14.58;86.47
19112;BME280;9688;51.906;8.376;2023-02-17T12:08:14;100658.88;;;14.65;86.14
19112;BME280;9688;51.906;8.376;2023-02-17T12:11:08;100681.56;;;14.72;85.24
19112;BME280;9688;51.906;8.376;2023-02-17T12:14:15;100647.75;;;14.75;85.13
19112;BME280;9688;51.906;8.376;2023-02-17T12:17:12;100660.50;;;14.68;85.73
19112;BME280;9688;51.906;8.376;2023-02-17T12:20:06;100683.09;;;14.61;85.29
19112;BME280;9688;51.906;8.376;2023-02-17T12:23:09;100694.28;;;14.50;85.43
19112;BME280;9688;51.906;8.376;2023-02-17T12:26:02;100689.19;;;14.45;86.02
19112;BME280;9688;51.906;8.376;2023-02-17T12:29:01;100695.78;;;14.38;86.11
19112;BME280;9688;51.906;8.376;2023-02-17T12:32:02;100682.63;;;14.35;85.78
19112;BME280;9688;51.906;8.376;2023-02-17T12:34:54;100660.50;;;14.35;85.58
19112;BME280;9688;51.906;8.376;2023-02-17T12:37:48;100665.59;;;14.39;85.54
19112;BME280;9688;51.906;8.376;2023-02-17T12:40:40;100662.81;;;14.41;85.71
19112;BME280;9688;51.906;8.376;2023-02-17T12:43:31;100672.72;;;14.39;85.71
19112;BME280;9688;51.906;8.376;2023-02-17T12:46:28;100692.97;;;14.41;85.34
19112;BME280;9688;51.906;8.376;2023-02-17T12:49:20;100676.22;;;14.39;85.48
19112;BME280;9688;51.906;8.376;2023-02-17T12:52:14;100679.22;;;14.33;85.61
19112;BME280;9688;51.906;8.376;2023-02-17T12:55:13;100698.00;;;14.30;85.74
19112;BME280;9688;51.906;8.376;2023-02-17T12:58:11;100701.69;;;14.27;85.80
19112;BME280;9688;51.906;8.376;2023-02-17T13:01:04;100712.31;;;14.27;86.14
19112;BME280;9688;51.906;8.376;2023-02-17T13:03:52;100706.22;;;14.25;86.50
19112;BME280;9688;51.906;8.376;2023-02-17T13:06:41;100700.97;;;14.24;86.34
19112;BME280;9688;51.906;8.376;2023-02-17T13:09:32;100701.97;;;14.21;86.69
19112;BME280;9688;51.906;8.376;2023-02-17T13:12:39;100704.91;;;14.17;86.34
19112;BME280;9688;51.906;8.376;2023-02-17T13:15:38;100710.28;;;14.15;86.46
19112;BME280;9688;51.906;8.376;2023-02-17T13:18:28;100713.03;;;14.14;86.26
19112;BME280;9688;51.906;8.376;2023-02-17T13:21:16;100720.06;;;14.15;86.78
19112;BME280;9688;51.906;8.376;2023-02-17T13:24:04;100723.66;;;14.14;86.43
19112;BME280;9688;51.906;8.376;2023-02-17T13:26:51;100737.97;;;14.11;86.76
19112;BME280;9688;51.906;8.376;2023-02-17T13:29:37;100732.66;;;14.11;86.85
19112;BME280;9688;51.906;8.376;2023-02-17T13:32:28;100735.63;;;14.05;86.98
19112;BME280;9688;51.906;8.376;2023-02-17T13:35:31;100747.34;;;14.01;87.38
19112;BME280;9688;51.906;8.376;2023-02-17T13:38:26;100754.63;;;13.97;87.26
19112;BME280;9688;51.906;8.376;2023-02-17T13:41:13;100779.56;;;13.95;87.60
19112;BME280;9688;51.906;8.376;2023-02-17T13:44:19;100787.69;;;13.92;87.69
19112;BME280;9688;51.906;8.376;2023-02-17T13:47:14;100784.25;;;13.90;88.04
19112;BME280;9688;51.906;8.376;2023-02-17T13:50:23;100784.38;;;13.87;88.58
19112;BME280;9688;51.906;8.376;2023-02-17T13:53:24;100790.94;;;13.79;88.59
19112;BME280;9688;51.906;8.376;2023-02-17T13:56:24;100796.50;;;13.75;89.34
19112;BME280;9688;51.906;8.376;2023-02-17T13:59:14;100802.22;;;13.66;89.94
19112;BME280;9688;51.906;8.376;2023-02-17T14:02:01;100797.81;;;13.47;91.25
19112;BME280;9688;51.906;8.376;2023-02-17T14:04:48;100797.47;;;13.36;92.10
19112;BME280;9688;51.906;8.376;2023-02-17T14:07:37;100794.38;;;13.26;92.88
19112;BME280;9688;51.906;8.376;2023-02-17T14:10:26;100799.09;;;13.20;93.63
19112;BME280;9688;51.906;8.376;2023-02-17T14:13:16;100795.06;;;13.11;94.66
19112;BME280;9688;51.906;8.376;2023-02-17T14:16:02;100791.75;;;13.06;95.28
19112;BME280;9688;51.906;8.376;2023-02-17T14:19:00;100791.09;;;13.01;95.82
19112;BME280;9688;51.906;8.376;2023-02-17T14:21:58;100791.25;;;12.98;96.19
19112;BME280;9688;51.906;8.376;2023-02-17T14:24:57;100803.00;;;12.92;96.42
19112;BME280;9688;51.906;8.376;2023-02-17T14:27:45;100784.63;;;12.87;96.98
19112;BME280;9688;51.906;8.376;2023-02-17T14:30:34;100775.81;;;12.87;97.27
19112;BME280;9688;51.906;8.376;2023-02-17T14:33:23;100780.19;;;12.88;97.43
19112;BME280;9688;51.906;8.376;2023-02-17T14:36:11;100770.50;;;12.87;97.68
19112;BME280;9688;51.906;8.376;2023-02-17T14:38:58;100776.88;;;12.83;98.22
19112;BME280;9688;51.906;8.376;2023-02-17T14:41:46;100785.78;;;12.82;98.65
19112;BME280;9688;51.906;8.376;2023-02-17T14:44:32;100777.00;;;12.80;98.24
19112;BME280;9688;51.906;8.376;2023-02-17T14:47:18;100776.28;;;12.76;98.71
19112;BME280;9688;51.906;8.376;2023-02-17T14:50:10;100783.25;;;12.79;99.11
19112;BME280;9688;51.906;8.376;2023-02-17T14:53:02;100777.88;;;12.80;98.64
19112;BME280;9688;51.906;8.376;2023-02-17T14:55:50;100783.13;;;12.82;98.75
19112;BME280;9688;51.906;8.376;2023-02-17T14:58:40;100796.38;;;12.82;98.83